Terminal Aerodrome Forecast
Issued by NWS

Home | Current Version | Previous Version | Text Only | Print | Product List | Glossary On
Versions: 1 2 3 4 5 6 7 8 9 10 11 12
000
FTUS45 KREV 300526
TAFTVL
TAF
KTVL 300526Z 3006/3106 VRB03KT P6SM FEW120 BKN180
     FM301900 20009G17KT P6SM FEW080 SCT180
     FM302300 20010G18KT P6SM SCT080 BKN180
     FM310200 19006KT P6SM SCT180=

USA.gov is the U.S. government's official web portal to all federal, state and local government web resources and services.